AirNav   Air Wisconsin Up To $57,000 Bonus
 
 1432 users online  

12WA Fowlers NW 40 Airport
Spokane, Washington, USA

GOING TO SPOKANE?


FAA INFORMATION EFFECTIVE 02 DECEMBER 2021

Location

FAA Identifier: 12WA
Lat/Long: 47-31-14.6100N 117-27-45.7370W
47-31.243500N 117-27.762283W
47.5207250,-117.4627047
(estimated)
Elevation: 2313 ft. / 705 m (estimated)
Variation: 19E (1985)
From city: 8 miles SW of SPOKANE, WA
Time zone: UTC -8 (UTC -7 during Daylight Saving Time)
Zip code: 99224

Airport Operations

Airport use: Private use. Permission required prior to landing
Control tower: no
ARTCC: SEATTLE CENTER
FSS: SEATTLE FLIGHT SERVICE STATION
Attendance: CONTINUOUS
OWNER LIVES ON FIELD.
Wind indicator: yes
Segmented circle: no

Airport Communications

WX ASOS at GEG (7 nm NW): PHONE 509-742-2544
WX ASOS at SFF (11 nm NE): 120.55 (509-535-3290)

Nearby radio navigation aids

VOR radial/distance  VOR name  Freq  Var
GEGr091/7.2SPOKANE VORTAC115.5021E
COEr221/30.1COEUR D'ALENE VOR/DME108.8019E

 
NDB name  Hdg/Dist  Freq  Var  ID
DEER PARK167/26.936516EDPY -.. .--. -.--

Airport Services

Airframe service: NONE
Powerplant service: NONE

Runway Information

Runway 3/21

Dimensions: 1550 x 200 ft. / 472 x 61 m
Surface: turf
RUNWAY 3  RUNWAY 21
Traffic pattern: leftleft
Obstructions: 50 ft. trees, 500 ft. from runwaynone

Airport Ownership and Management from official FAA records

Ownership: Privately-owned
Owner: ROGER B. BERTSCH & SONIA L. BERTSCH
W3513 SMYTHE ROAD
SPOKANE, WA 99224
Phone (509) 879-2276
Manager: ROGER B. BERTCH
3606 W WASHINGTON RD
SPOKANE, WA 99224
Phone (509) 879-2276

Additional Remarks

FOR CD CTC SPOKANE APCH AT 509-742-2522

Instrument Procedures

There are no published instrument procedures at 12WA.

Some nearby airports with instrument procedures:

KGEG - Spokane International Airport (7 nm NW)
KSKA - Fairchild Air Force Base (10 nm NW)
KSFF - Felts Field Airport (11 nm NE)
KDEW - Deer Park Airport (27 nm N)
KCOE - Coeur d'Alene Airport - Pappy Boyington Field (30 nm NE)
 
Loc | Ops | Rwys | IFR | FBO | Links
Com | Nav | Svcs | Stats | Notes
Area around 12WA (Fowlers NW 40 Airport)
 
Road maps at: MapQuest Bing Google
 
Aerial photo
No photo
 
Sectional chart

 
Airport distance calculator
Flying to Fowlers NW 40 Airport? Find the distance to fly.

From to 12WA

Sunrise and sunset
Times for 06-Dec-2021
 Local
(UTC-8)
 Zulu
(UTC)
Morning civil twilight06:4814:48
Sunrise07:2415:24
Sunset15:5823:58
Evening civil twilight16:3400:34

Current date and time
Zulu (UTC)  06-Dec-2021 18:06:02
Local (UTC-8)  06-Dec-2021 10:06:02
 
METAR
KGEG 
6nm NW 
061753Z 05006KT 1 1/2SM -SN BKN035 OVC060 M05/M07 A3004 RMK AO2 SLP201 P0001 60001 T10501067 11039 21056 56009 $
KSKA 
10nm NW 
061648Z 03008KT 1 1/2SM -SN BR FEW022 BKN027 BKN033 BKN040 BKN047 M05/M06 A3004 RMK AO2A SNB14 CIG 027V036 SLP207 $
KSFF 
11nm NE 
061758Z 07003KT 3SM -SN BR SCT045 BKN055 OVC070 M03/M05 A3007 RMK AO2 P0000 T10331050
TAF
KGEG 
6nm NW 
061740Z 0618/0718 06006KT 1 1/2SM -SN OVC018 TEMPO 0618/0622 1/2SM SN OVC012 FM062200 03004KT 6SM BR SCT005 OVC015 FM070200 VRB03KT 4SM BR BKN008 OVC020 FM070500 02004KT 1 1/2SM BR BKN003 FM071700 VRB03KT 6SM BR OVC003
KSKA 
10nm NW 
061100Z 0611/0717 07006KT 9999 SCT020 SCT025 OVC030 620309 QNH3010INS TEMPO 0611/0612 -SHSN BECMG 0612/0614 VRB06KT 4800 -SN BKN020 OVC030 610209 QNH2999INS TEMPO 0617/0621 3200 BR BKN008 OVC010 620089 BECMG 0701/0703 VRB06KT 1600 BR VCSH OVC005 620058 QNH2997INS BECMG 0704/0705 03004KT 0400 FZFG VV002 620028 QNH2999INS TXM01/0621Z TNM06/0715Z
KSFF 
11nm NE 
061120Z 0612/0712 12005KT P6SM BKN050 OVC070 FM061400 VRB02KT 6SM -SN OVC035 FM061900 VRB03KT 1SM -SN BR OVC015 FM070000 02004KT 2SM BR OVC015 FM070400 VRB04KT 3SM BR BKN010 FM071000 00000KT 1/4SM FZFG OVC007
NOTAMs
Click for the latest NOTAMs
NOTAMs are issued by the DoD/FAA and will open in a separate window not controlled by AirNav.

 

 
 

Would you like to see your business listed on this page?

 If your business provides an interesting product or service to pilots, flight crews, aircraft, or users of the Fowlers NW 40 Airport, you should consider listing it here.  To start the listing process, click on the button below
 
Add a business
 

Other Pages about Fowlers NW 40 Airport

Update a link
 
Copyright © AirNav, LLC. All rights reserved. Privacy Policy  Contact